Time;durP1;ratioP1;P1;durP2;ratioP2;P2;SDS_P1;SDS_P2;PMS_P1;PMS_P2;Temp;Humidity;BMP_temperature;BMP_pressure;BME280_temperature;BME280_humidity;BME280_pressure;Samples;Min_cycle;Max_cycle;Signal;HPM_P1;HPM_P2
2023/04/10 00:01:34;;;;;;;0.50;0.50;;;12.80;99.90;;;;;;5007025;28;20214;-96
2023/04/10 00:04:05;;;;;;;0.90;0.53;;;12.90;99.90;;;;;;4997003;28;20641;-96
2023/04/10 00:06:40;;;;;;;1.60;0.47;;;12.90;99.90;;;;;;4995489;28;20289;-96
2023/04/10 00:09:12;;;;;;;1.63;0.50;;;12.90;99.90;;;;;;5000743;28;20221;-96
2023/04/10 00:11:45;;;;;;;0.70;0.40;;;12.80;99.90;;;;;;5001020;28;20202;-96
2023/04/10 00:14:21;;;;;;;0.90;0.50;;;12.80;99.90;;;;;;4974208;28;20210;-96
2023/04/10 00:16:52;;;;;;;0.50;0.50;;;12.70;99.90;;;;;;4994414;28;20226;-96
2023/04/10 00:19:24;;;;;;;0.80;0.50;;;12.70;99.90;;;;;;4990788;28;20218;-96
2023/04/10 00:21:59;;;;;;;0.53;0.50;;;12.70;99.90;;;;;;4995013;28;20593;-96
2023/04/10 00:24:30;;;;;;;1.20;0.70;;;12.80;99.90;;;;;;5001446;28;20333;-96
2023/04/10 00:27:02;;;;;;;1.70;0.57;;;12.80;99.90;;;;;;4998292;28;20206;-96
2023/04/10 00:29:33;;;;;;;1.10;0.63;;;12.70;99.90;;;;;;4998247;28;20233;-96
2023/04/10 00:32:06;;;;;;;1.33;0.80;;;12.70;99.90;;;;;;4996105;28;20246;-96
2023/04/10 00:34:41;;;;;;;1.63;0.80;;;12.80;99.90;;;;;;4994725;28;20197;-95
2023/04/10 00:37:14;;;;;;;1.67;0.87;;;12.70;99.90;;;;;;5009438;28;20217;-96
2023/04/10 00:39:46;;;;;;;0.60;0.60;;;12.80;99.90;;;;;;4997412;28;20243;-96
2023/04/10 00:42:18;;;;;;;1.23;0.70;;;12.70;99.90;;;;;;5010504;28;20663;-96
2023/04/10 00:44:50;;;;;;;1.73;0.80;;;12.70;99.90;;;;;;5018509;28;20248;-95
2023/04/10 00:47:22;;;;;;;2.63;1.00;;;12.70;99.90;;;;;;5036873;28;20246;-96
2023/04/10 00:49:54;;;;;;;2.73;1.10;;;12.70;99.90;;;;;;5035379;28;20202;-96
2023/04/10 00:52:28;;;;;;;1.47;1.10;;;12.70;99.90;;;;;;5033195;28;20197;-96
2023/04/10 00:55:00;;;;;;;1.07;0.97;;;12.70;99.90;;;;;;5019848;28;20220;-96
2023/04/10 00:57:32;;;;;;;2.00;1.07;;;12.60;99.90;;;;;;5015874;28;20194;-96
2023/04/10 01:00:04;;;;;;;1.97;1.17;;;12.50;99.90;;;;;;5017935;28;20241;-96
2023/04/10 01:02:36;;;;;;;3.40;1.40;;;12.50;99.90;;;;;;5014056;28;20203;-96
2023/04/10 01:05:11;;;;;;;3.00;1.33;;;12.50;99.90;;;;;;5016073;28;20222;-94
2023/04/10 01:08:00;;;;;;;1.40;1.30;;;12.50;99.90;;;;;;4998199;28;20198;-96
2023/04/10 01:10:37;;;;;;;4.73;1.90;;;12.40;99.90;;;;;;5010316;28;20233;-96
2023/04/10 01:13:17;;;;;;;2.97;1.17;;;12.40;99.90;;;;;;5030247;28;20255;-96
2023/04/10 01:15:54;;;;;;;1.80;1.07;;;12.40;99.90;;;;;;5018473;28;20194;-96
2023/04/10 01:18:32;;;;;;;3.20;1.30;;;12.30;99.90;;;;;;5007202;28;20292;-96
2023/04/10 01:21:08;;;;;;;2.73;1.30;;;12.10;99.90;;;;;;5002780;28;20580;-96
2023/04/10 01:24:12;;;;;;;2.10;1.30;;;12.10;99.90;;;;;;5003957;28;20206;-96
2023/04/10 01:26:57;;;;;;;2.03;1.00;;;12.10;99.90;;;;;;4998292;28;20298;-88
2023/04/10 01:29:32;;;;;;;3.60;1.33;;;12.10;99.90;;;;;;4989967;28;20217;-88
2023/04/10 01:32:06;;;;;;;4.53;1.00;;;12.10;99.90;;;;;;4991945;28;20210;-87
2023/04/10 01:34:41;;;;;;;1.23;0.80;;;12.10;99.90;;;;;;4987547;28;20229;-87
2023/04/10 01:37:18;;;;;;;2.23;1.10;;;12.10;99.90;;;;;;4997271;28;20214;-88
2023/04/10 01:39:55;;;;;;;2.00;1.40;;;12.10;99.90;;;;;;4986782;28;20317;-88
2023/04/10 01:42:27;;;;;;;1.63;0.90;;;12.10;99.90;;;;;;4986448;28;20218;-88
2023/04/10 01:45:02;;;;;;;1.37;0.80;;;12.00;99.90;;;;;;5002775;28;20230;-89
2023/04/10 01:47:33;;;;;;;0.80;0.70;;;12.00;99.90;;;;;;5018300;28;20240;-91
2023/04/10 01:50:06;;;;;;;1.97;0.83;;;11.90;99.90;;;;;;4999872;28;20206;-87
2023/04/10 01:52:38;;;;;;;2.00;1.00;;;11.90;99.90;;;;;;4991209;28;20210;-88
2023/04/10 01:55:10;;;;;;;3.43;1.00;;;11.90;99.90;;;;;;4998016;28;20206;-88
2023/04/10 01:57:42;;;;;;;1.27;1.13;;;11.90;99.90;;;;;;4994618;28;20344;-88
2023/04/10 02:00:17;;;;;;;2.13;1.27;;;11.80;99.90;;;;;;5002297;28;20246;-87
2023/04/10 02:02:49;;;;;;;1.20;0.87;;;11.80;99.90;;;;;;4985306;28;20213;-88
2023/04/10 02:05:22;;;;;;;1.77;1.00;;;11.80;99.90;;;;;;4995529;28;20336;-89
2023/04/10 02:08:03;;;;;;;2.53;1.30;;;11.80;99.90;;;;;;4999371;28;20198;-90
2023/04/10 02:10:42;;;;;;;2.03;1.40;;;11.70;99.90;;;;;;4666513;28;10001516;-89
2023/04/10 02:13:16;;;;;;;4.47;1.30;;;11.70;99.90;;;;;;5004533;28;20210;-89
2023/04/10 02:15:52;;;;;;;1.93;1.30;;;11.70;99.90;;;;;;4988203;28;20217;-90
2023/04/10 02:18:25;;;;;;;1.50;1.00;;;11.60;99.90;;;;;;4988981;28;20218;-89
2023/04/10 02:20:57;;;;;;;2.40;1.00;;;11.70;99.90;;;;;;4988206;28;20258;-88
2023/04/10 02:23:28;;;;;;;1.33;0.83;;;11.60;99.90;;;;;;4988539;28;20221;-89
2023/04/10 02:26:00;;;;;;;3.23;1.20;;;11.50;99.90;;;;;;4988423;28;20300;-88
2023/04/10 02:28:31;;;;;;;1.10;1.00;;;11.50;99.90;;;;;;4991116;28;20207;-88
2023/04/10 02:31:04;;;;;;;1.37;1.17;;;11.50;99.90;;;;;;4984179;28;20288;-89
2023/04/10 02:33:36;;;;;;;1.43;1.10;;;11.40;99.90;;;;;;4988175;28;20218;-89
2023/04/10 02:36:08;;;;;;;1.07;0.70;;;11.40;99.90;;;;;;4988526;28;20281;-88
2023/04/10 02:38:39;;;;;;;0.87;0.50;;;11.30;99.90;;;;;;4984283;28;20211;-89
2023/04/10 02:41:10;;;;;;;1.50;0.70;;;11.30;99.90;;;;;;4990612;28;20273;-88
2023/04/10 02:43:41;;;;;;;2.30;1.20;;;11.20;99.90;;;;;;4986919;28;20214;-88
2023/04/10 02:46:17;;;;;;;2.47;1.17;;;11.20;99.90;;;;;;4985068;28;20598;-88
2023/04/10 02:48:48;;;;;;;1.43;1.20;;;11.30;99.90;;;;;;4981808;28;20206;-89
2023/04/10 02:51:20;;;;;;;2.03;1.50;;;11.30;99.90;;;;;;4987428;28;20261;-88
2023/04/10 02:53:52;;;;;;;1.00;0.83;;;11.30;99.90;;;;;;4989673;28;20221;-89
2023/04/10 02:56:24;;;;;;;1.77;1.00;;;11.20;99.90;;;;;;4988291;28;20202;-88
2023/04/10 02:58:55;;;;;;;1.23;0.80;;;11.20;99.90;;;;;;4988643;28;20210;-88
2023/04/10 03:01:29;;;;;;;0.93;0.87;;;11.20;99.90;;;;;;4996098;28;20240;-88
2023/04/10 03:04:01;;;;;;;1.90;0.90;;;11.20;99.90;;;;;;4981054;28;20210;-87
2023/04/10 03:06:32;;;;;;;1.00;0.90;;;11.20;99.90;;;;;;4985596;28;20222;-86
2023/04/10 03:09:05;;;;;;;4.30;0.60;;;11.20;99.90;;;;;;4987018;28;20249;-87
2023/04/10 03:11:37;;;;;;;3.70;0.80;;;11.20;99.90;;;;;;4985855;28;20207;-89
2023/04/10 03:14:10;;;;;;;1.90;0.80;;;11.10;99.90;;;;;;4993583;28;20278;-91
2023/04/10 03:16:46;;;;;;;1.07;0.87;;;11.10;99.90;;;;;;4991269;28;20214;-95
2023/04/10 03:19:17;;;;;;;0.93;0.70;;;11.00;99.90;;;;;;5002056;28;20299;-93
2023/04/10 03:21:49;;;;;;;1.75;0.65;;;11.00;99.90;;;;;;5114033;23;20190;-95
2023/04/10 03:24:33;;;;;;;1.07;0.70;;;11.00;99.90;;;;;;4991214;28;20459;-96
2023/04/10 03:27:04;;;;;;;1.43;0.80;;;11.00;99.90;;;;;;5002079;28;20292;-95
2023/04/10 03:29:35;;;;;;;0.90;0.70;;;11.00;99.90;;;;;;5001856;28;20230;-89
2023/04/10 03:32:11;;;;;;;2.03;0.67;;;11.00;99.90;;;;;;4990480;28;20275;-89
2023/04/10 03:34:42;;;;;;;2.20;0.80;;;11.00;99.90;;;;;;4989498;28;20206;-89
2023/04/10 03:37:13;;;;;;;0.67;0.67;;;10.90;99.90;;;;;;4983636;28;20214;-89
2023/04/10 03:39:44;;;;;;;0.90;0.60;;;10.90;99.90;;;;;;4976976;28;20214;-88
2023/04/10 03:42:16;;;;;;;2.47;1.07;;;10.90;99.90;;;;;;4985840;28;20210;-87
2023/04/10 03:44:47;;;;;;;1.80;1.00;;;10.90;99.90;;;;;;4995830;28;20202;-88
2023/04/10 03:47:22;;;;;;;1.27;1.10;;;10.80;99.90;;;;;;5011096;28;20943;-88
2023/04/10 03:49:54;;;;;;;1.00;0.90;;;10.80;99.90;;;;;;5011128;28;20217;-88
2023/04/10 03:52:26;;;;;;;2.67;1.00;;;10.80;99.90;;;;;;5005686;28;20214;-88
2023/04/10 03:54:58;;;;;;;0.40;0.40;;;10.70;99.90;;;;;;4995492;28;20218;-87
2023/04/10 03:57:29;;;;;;;0.50;0.50;;;10.60;99.90;;;;;;4993900;28;20227;-88
2023/04/10 04:00:00;;;;;;;0.50;0.50;;;10.60;99.90;;;;;;4981586;28;20265;-88
2023/04/10 04:02:33;;;;;;;0.50;0.50;;;10.60;99.90;;;;;;4993721;28;20214;-88
2023/04/10 04:05:05;;;;;;;1.13;0.30;;;10.50;99.90;;;;;;4994375;28;20238;-87
2023/04/10 04:07:36;;;;;;;0.50;0.50;;;10.50;99.90;;;;;;4991288;28;20248;-89
2023/04/10 04:10:09;;;;;;;0.93;0.53;;;10.50;99.90;;;;;;4989214;28;20264;-87
2023/04/10 04:12:40;;;;;;;0.60;0.60;;;10.50;99.90;;;;;;4989524;28;20214;-88
2023/04/10 04:15:12;;;;;;;1.37;0.70;;;10.50;99.90;;;;;;4983839;28;20743;-88
2023/04/10 04:17:46;;;;;;;1.00;0.80;;;10.40;99.90;;;;;;4987636;28;20211;-87
2023/04/10 04:20:18;;;;;;;0.70;0.50;;;10.40;99.90;;;;;;4977949;28;20215;-88
2023/04/10 04:22:49;;;;;;;1.17;0.70;;;10.30;99.90;;;;;;5005273;28;20213;-87
2023/04/10 04:25:20;;;;;;;2.43;0.63;;;10.20;99.90;;;;;;4985583;28;20225;-87
2023/04/10 04:27:51;;;;;;;0.97;0.90;;;10.20;99.90;;;;;;4996085;28;20280;-87
2023/04/10 04:30:23;;;;;;;0.70;0.70;;;10.20;99.90;;;;;;4998133;28;20554;-87
2023/04/10 04:32:57;;;;;;;2.53;1.10;;;10.10;99.90;;;;;;4996728;28;20267;-88
2023/04/10 04:35:28;;;;;;;0.97;0.80;;;10.10;99.90;;;;;;4996343;28;20210;-88
2023/04/10 04:37:59;;;;;;;1.03;0.70;;;10.10;99.90;;;;;;4997295;28;20586;-87
2023/04/10 04:40:30;;;;;;;0.90;0.73;;;10.00;99.90;;;;;;4980136;28;20225;-88
2023/04/10 04:43:01;;;;;;;1.23;1.13;;;9.90;99.90;;;;;;4993593;28;20207;-88
2023/04/10 04:45:32;;;;;;;0.70;0.70;;;9.90;99.90;;;;;;4998508;28;20270;-88
2023/04/10 04:48:05;;;;;;;0.70;0.70;;;9.90;99.90;;;;;;4996905;28;20733;-88
2023/04/10 04:50:37;;;;;;;0.60;0.60;;;9.90;99.90;;;;;;4986998;28;20237;-88
2023/04/10 04:53:08;;;;;;;1.33;0.70;;;9.90;99.90;;;;;;4978911;28;20206;-88
2023/04/10 04:55:39;;;;;;;1.67;0.70;;;9.90;99.90;;;;;;4982480;28;20218;-88
2023/04/10 04:58:10;;;;;;;1.70;0.80;;;9.80;99.90;;;;;;5001591;28;20289;-88
2023/04/10 05:00:41;;;;;;;0.80;0.80;;;9.80;99.90;;;;;;5029715;28;20228;-88
2023/04/10 05:03:14;;;;;;;0.73;0.60;;;9.80;99.90;;;;;;5016600;28;20203;-88
2023/04/10 05:05:46;;;;;;;1.20;0.80;;;9.70;99.90;;;;;;4996713;28;20211;-89
2023/04/10 05:08:17;;;;;;;1.27;0.83;;;9.70;99.90;;;;;;4992207;28;20230;-88
2023/04/10 05:10:48;;;;;;;3.33;1.20;;;9.70;99.90;;;;;;5007820;28;20206;-89
2023/04/10 05:13:20;;;;;;;1.83;0.90;;;9.60;99.90;;;;;;4993014;28;20288;-90
2023/04/10 05:15:51;;;;;;;1.23;0.67;;;9.60;99.90;;;;;;4994332;28;20244;-88
2023/04/10 05:18:23;;;;;;;1.83;0.80;;;9.50;99.90;;;;;;4997189;28;20261;-88
2023/04/10 05:20:55;;;;;;;1.07;0.80;;;9.50;99.90;;;;;;4997473;28;20671;-88
2023/04/10 05:23:27;;;;;;;2.13;0.90;;;9.40;99.90;;;;;;5008020;28;20249;-87
2023/04/10 05:25:58;;;;;;;1.23;0.80;;;9.40;99.90;;;;;;4977946;28;20242;-87
2023/04/10 05:28:30;;;;;;;1.10;1.00;;;9.40;99.90;;;;;;4989872;28;20234;-87
2023/04/10 05:31:01;;;;;;;1.30;0.90;;;9.40;99.90;;;;;;5001690;28;20221;-90
2023/04/10 05:33:36;;;;;;;1.27;0.80;;;9.40;99.90;;;;;;4993658;28;20240;-88
2023/04/10 05:36:08;;;;;;;1.07;0.97;;;9.40;99.90;;;;;;4986036;28;20207;-89
2023/04/10 05:38:40;;;;;;;1.13;0.80;;;9.30;99.90;;;;;;4990237;28;20267;-88
2023/04/10 05:41:11;;;;;;;1.80;0.70;;;9.40;99.90;;;;;;5002332;28;20214;-88
2023/04/10 05:43:43;;;;;;;1.43;1.00;;;9.40;99.90;;;;;;4985379;28;20203;-88
2023/04/10 05:46:15;;;;;;;1.60;1.27;;;9.30;99.90;;;;;;4999217;28;20202;-88
2023/04/10 05:48:48;;;;;;;2.47;0.97;;;9.30;99.90;;;;;;5004045;28;20249;-88
2023/04/10 05:51:20;;;;;;;3.87;1.10;;;9.30;99.90;;;;;;5009917;28;20277;-88
2023/04/10 05:53:53;;;;;;;1.30;0.90;;;9.30;99.90;;;;;;5020476;28;20202;-88
2023/04/10 05:56:24;;;;;;;1.10;1.00;;;9.30;99.90;;;;;;4984710;28;20219;-88
2023/04/10 05:58:56;;;;;;;1.40;1.00;;;9.30;99.90;;;;;;4990969;28;20239;-89
2023/04/10 06:01:27;;;;;;;2.17;1.00;;;9.30;99.90;;;;;;4987640;28;20203;-89
2023/04/10 06:04:01;;;;;;;1.90;1.10;;;9.20;99.90;;;;;;4993516;28;20206;-88
2023/04/10 06:06:34;;;;;;;4.30;1.10;;;9.30;99.90;;;;;;4994183;28;20726;-89
2023/04/10 06:09:09;;;;;;;1.80;0.87;;;9.30;99.90;;;;;;4992621;28;20230;-88
2023/04/10 06:11:40;;;;;;;1.27;1.00;;;9.30;99.90;;;;;;4989198;28;20244;-88
2023/04/10 06:14:12;;;;;;;1.10;1.00;;;9.20;99.90;;;;;;4986893;28;20698;-88
2023/04/10 06:16:44;;;;;;;2.63;0.97;;;9.20;99.90;;;;;;4980034;28;20207;-88
2023/04/10 06:19:18;;;;;;;1.00;0.90;;;9.20;99.90;;;;;;4992612;28;20208;-88
2023/04/10 06:21:50;;;;;;;0.93;0.87;;;9.10;99.90;;;;;;4987159;28;20203;-87
2023/04/10 06:24:23;;;;;;;1.17;0.90;;;9.00;99.90;;;;;;5004456;28;20644;-89
2023/04/10 06:26:55;;;;;;;1.50;1.10;;;8.90;99.90;;;;;;4999712;28;20260;-87
2023/04/10 06:29:27;;;;;;;1.33;0.90;;;8.80;99.90;;;;;;5005125;28;20214;-87
2023/04/10 06:31:59;;;;;;;1.17;1.07;;;8.80;99.90;;;;;;4998524;28;20580;-88
2023/04/10 06:34:33;;;;;;;4.37;1.03;;;8.80;99.90;;;;;;4997199;28;20261;-87
2023/04/10 06:37:04;;;;;;;1.30;1.20;;;8.80;99.90;;;;;;4998497;28;20305;-88
2023/04/10 06:39:36;;;;;;;3.90;1.63;;;8.80;99.90;;;;;;4996861;28;20611;-88
2023/04/10 06:42:07;;;;;;;1.20;0.90;;;8.70;99.90;;;;;;4995100;28;20208;-88
2023/04/10 06:44:39;;;;;;;4.83;1.30;;;8.80;99.90;;;;;;4995413;28;20264;-88
2023/04/10 06:47:10;;;;;;;2.17;1.10;;;8.80;99.90;;;;;;4986389;28;20257;-88
2023/04/10 06:49:43;;;;;;;1.50;0.90;;;8.80;99.90;;;;;;4973672;28;20203;-87
2023/04/10 06:52:15;;;;;;;1.87;1.20;;;8.80;99.90;;;;;;4975868;28;20215;-87
2023/04/10 06:54:46;;;;;;;2.33;1.23;;;8.80;99.90;;;;;;4988053;28;20202;-88
2023/04/10 06:57:18;;;;;;;3.47;1.20;;;8.70;99.90;;;;;;4977764;28;20660;-88
2023/04/10 06:59:50;;;;;;;1.97;1.27;;;8.70;99.90;;;;;;4975704;28;20579;-86
2023/04/10 07:02:21;;;;;;;2.20;1.33;;;8.60;99.90;;;;;;4999292;28;20619;-87
2023/04/10 07:04:55;;;;;;;1.50;1.33;;;8.60;99.90;;;;;;4994674;28;20302;-88
2023/04/10 07:07:28;;;;;;;3.23;1.40;;;8.60;99.90;;;;;;4984023;28;20209;-86
2023/04/10 07:09:59;;;;;;;6.10;1.57;;;8.60;99.90;;;;;;4991400;28;20214;-88
2023/04/10 07:12:31;;;;;;;2.70;1.50;;;8.60;99.90;;;;;;4977686;28;20215;-88
2023/04/10 07:15:03;;;;;;;3.17;1.20;;;8.50;99.90;;;;;;4991806;28;20257;-86
2023/04/10 07:17:35;;;;;;;2.10;1.20;;;8.40;99.90;;;;;;4994311;28;20260;-87
2023/04/10 07:20:10;;;;;;;3.90;1.17;;;8.40;99.90;;;;;;4994618;28;20221;-88
2023/04/10 07:22:42;;;;;;;2.47;1.20;;;8.40;99.90;;;;;;4992037;28;20213;-87
2023/04/10 07:25:13;;;;;;;3.97;1.00;;;8.40;99.90;;;;;;4994434;28;20266;-88
2023/04/10 07:27:45;;;;;;;2.33;1.33;;;8.40;99.90;;;;;;4985096;28;20211;-88
2023/04/10 07:30:17;;;;;;;2.03;1.00;;;8.40;99.90;;;;;;4975128;28;20211;-88
2023/04/10 07:32:48;;;;;;;2.07;1.20;;;8.40;99.90;;;;;;4986595;28;20214;-87
2023/04/10 07:35:23;;;;;;;2.87;1.17;;;8.40;99.90;;;;;;4994770;28;20217;-86
2023/04/10 07:37:55;;;;;;;2.03;1.17;;;8.50;99.90;;;;;;4989962;28;20272;-87
2023/04/10 07:40:28;;;;;;;4.00;1.30;;;8.50;99.90;;;;;;4994695;28;20250;-88
2023/04/10 07:43:00;;;;;;;3.93;1.23;;;8.40;99.90;;;;;;4987375;28;20209;-87
2023/04/10 07:45:31;;;;;;;3.40;1.40;;;8.40;99.90;;;;;;4982523;28;20304;-87
2023/04/10 07:48:05;;;;;;;2.70;1.30;;;8.50;99.90;;;;;;4987784;28;20233;-87
2023/04/10 07:50:38;;;;;;;3.33;1.50;;;8.50;99.90;;;;;;5011211;28;20241;-88
2023/04/10 07:53:09;;;;;;;3.43;1.47;;;8.50;99.90;;;;;;5018641;28;20218;-88
2023/04/10 07:55:41;;;;;;;4.37;1.30;;;8.60;99.90;;;;;;5010006;28;20214;-87
2023/04/10 07:58:12;;;;;;;2.50;1.30;;;8.50;99.90;;;;;;5011218;28;20210;-88
2023/04/10 08:00:44;;;;;;;5.53;1.40;;;8.50;99.90;;;;;;5005208;28;20206;-87
2023/04/10 08:03:17;;;;;;;3.70;1.40;;;8.50;99.90;;;;;;4994402;28;20203;-88
2023/04/10 08:05:51;;;;;;;3.97;1.90;;;8.50;99.90;;;;;;5000891;28;20210;-87
2023/04/10 08:08:23;;;;;;;4.20;1.50;;;8.50;99.90;;;;;;4987161;28;20235;-87
2023/04/10 08:10:54;;;;;;;4.83;1.50;;;8.50;99.90;;;;;;4976964;28;20219;-88
2023/04/10 08:13:26;;;;;;;3.50;1.40;;;8.60;99.90;;;;;;4995108;28;20206;-87
2023/04/10 08:15:57;;;;;;;4.30;1.47;;;8.60;99.90;;;;;;4984824;28;20198;-88
2023/04/10 08:18:29;;;;;;;3.17;1.90;;;8.60;99.90;;;;;;4993841;28;20210;-87
2023/04/10 08:21:03;;;;;;;3.13;1.60;;;8.60;99.90;;;;;;4995000;28;20213;-88
2023/04/10 08:23:35;;;;;;;3.83;1.50;;;8.60;99.90;;;;;;4978240;28;20273;-87
2023/04/10 08:26:07;;;;;;;2.93;1.13;;;8.60;99.90;;;;;;4990453;28;20210;-87
2023/04/10 08:28:38;;;;;;;3.13;1.20;;;8.60;99.90;;;;;;4993691;28;20230;-88
2023/04/10 08:31:10;;;;;;;5.17;1.13;;;8.60;99.90;;;;;;4985512;28;20211;-88
2023/04/10 08:33:42;;;;;;;8.17;1.70;;;8.60;99.90;;;;;;4981324;28;20210;-88
2023/04/10 08:36:17;;;;;;;3.33;1.47;;;8.50;99.90;;;;;;4994295;28;20206;-88
2023/04/10 08:38:50;;;;;;;2.10;1.60;;;8.50;99.90;;;;;;4975203;28;20293;-88
2023/04/10 08:41:21;;;;;;;1.67;1.33;;;8.50;99.90;;;;;;4975015;28;20207;-87
2023/04/10 08:43:53;;;;;;;2.43;1.37;;;8.50;99.90;;;;;;4988296;28;20446;-87
2023/04/10 08:46:26;;;;;;;3.60;1.70;;;8.40;99.90;;;;;;4987761;28;20210;-86
2023/04/10 08:49:06;;;;;;;3.47;1.53;;;8.50;99.90;;;;;;4999350;28;20266;-88
2023/04/10 08:51:44;;;;;;;4.43;1.60;;;8.50;99.90;;;;;;5002368;28;20213;-86
2023/04/10 08:54:22;;;;;;;5.27;1.57;;;8.60;99.90;;;;;;4992979;28;20297;-88
2023/04/10 08:56:57;;;;;;;3.53;1.70;;;8.50;99.90;;;;;;4994022;28;20221;-87
2023/04/10 08:59:30;;;;;;;3.23;1.60;;;8.50;99.90;;;;;;4991916;28;20264;-87
2023/04/10 09:02:04;;;;;;;5.23;1.83;;;8.60;99.90;;;;;;4994263;28;20212;-87
2023/04/10 09:04:36;;;;;;;3.53;1.63;;;8.50;99.90;;;;;;5013785;28;20214;-88
2023/04/10 09:07:09;;;;;;;3.67;1.67;;;8.50;99.90;;;;;;4987719;28;20216;-87
2023/04/10 09:09:41;;;;;;;6.07;1.60;;;8.50;99.90;;;;;;4973551;28;20243;-88
2023/04/10 09:12:14;;;;;;;3.70;1.37;;;8.50;99.90;;;;;;4974948;28;20222;-88
2023/04/10 09:14:47;;;;;;;5.07;1.20;;;8.50;99.90;;;;;;4977546;28;20246;-87
2023/04/10 09:17:20;;;;;;;3.60;1.40;;;8.40;99.90;;;;;;4981389;28;20215;-86
2023/04/10 09:19:56;;;;;;;2.80;1.30;;;8.40;99.90;;;;;;5016895;28;20226;-88
2023/04/10 09:22:35;;;;;;;3.40;1.20;;;8.40;99.90;;;;;;5009499;28;20207;-88
2023/04/10 09:25:07;;;;;;;1.97;1.17;;;8.50;99.90;;;;;;4977685;28;20202;-88
2023/04/10 09:27:41;;;;;;;3.23;1.57;;;8.40;99.90;;;;;;4982651;28;20211;-87
2023/04/10 09:30:32;;;;;;;1.87;1.20;;;8.40;99.90;;;;;;4977688;28;20249;-88
2023/04/10 09:33:23;;;;;;;2.47;1.40;;;8.50;99.90;;;;;;4980688;28;20209;-87
2023/04/10 09:35:55;;;;;;;2.23;1.20;;;8.40;99.90;;;;;;5005582;28;20209;-87
2023/04/10 09:38:30;;;;;;;2.33;1.07;;;8.40;99.90;;;;;;5000022;28;20213;-87
2023/04/10 09:41:09;;;;;;;5.47;1.40;;;8.40;99.90;;;;;;4997415;28;20248;-87
2023/04/10 09:43:42;;;;;;;1.60;1.10;;;8.40;99.90;;;;;;4994105;28;20234;-87
2023/04/10 09:46:13;;;;;;;1.70;1.03;;;8.40;99.90;;;;;;4979829;28;20230;-88
2023/04/10 09:48:58;;;;;;;2.73;1.03;;;8.40;99.90;;;;;;4995784;28;20723;-86
2023/04/10 09:51:33;;;;;;;1.63;1.17;;;8.40;99.90;;;;;;5003906;28;20214;-87
2023/04/10 09:54:06;;;;;;;2.53;1.10;;;8.40;99.90;;;;;;5009483;28;20227;-87
2023/04/10 09:56:39;;;;;;;1.50;0.90;;;8.40;99.90;;;;;;5001311;28;20218;-87
2023/04/10 09:59:11;;;;;;;3.10;0.90;;;8.40;99.90;;;;;;4983227;28;20205;-88
2023/04/10 10:01:43;;;;;;;2.60;1.03;;;8.40;99.90;;;;;;4998513;28;20244;-86
2023/04/10 10:04:17;;;;;;;3.73;1.20;;;8.30;99.90;;;;;;5013705;28;20201;-87
2023/04/10 10:06:48;;;;;;;2.60;1.20;;;8.30;99.90;;;;;;5010062;28;20588;-88
2023/04/10 10:09:22;;;;;;;1.57;1.10;;;8.30;99.90;;;;;;4981268;28;20241;-88
2023/04/10 10:11:54;;;;;;;2.73;1.50;;;8.30;99.90;;;;;;4986678;28;20230;-88
2023/04/10 10:14:26;;;;;;;3.43;1.20;;;8.30;99.90;;;;;;4998902;28;20210;-88
2023/04/10 10:17:02;;;;;;;1.47;1.13;;;8.30;99.90;;;;;;4993223;28;20261;-88
2023/04/10 10:19:39;;;;;;;3.23;1.40;;;8.30;99.90;;;;;;4995620;28;20218;-87
2023/04/10 10:22:10;;;;;;;2.40;1.10;;;8.30;99.90;;;;;;4981462;28;20301;-87
2023/04/10 10:24:48;;;;;;;1.83;0.93;;;8.30;99.90;;;;;;4980818;28;20214;-88
2023/04/10 10:27:21;;;;;;;2.03;1.57;;;8.30;99.90;;;;;;4977032;28;20238;-88
2023/04/10 10:29:55;;;;;;;2.37;1.20;;;8.30;99.90;;;;;;4991428;28;20654;-88
2023/04/10 10:32:27;;;;;;;2.13;1.20;;;8.30;99.90;;;;;;4998479;28;20209;-87
2023/04/10 10:34:59;;;;;;;5.63;1.20;;;8.30;99.90;;;;;;4992475;28;20261;-87
2023/04/10 10:37:30;;;;;;;3.53;1.10;;;8.30;99.90;;;;;;4994618;28;20210;-87
2023/04/10 10:40:13;;;;;;;2.30;1.00;;;8.30;99.90;;;;;;4979813;28;20202;-86
2023/04/10 10:42:54;;;;;;;1.60;1.00;;;8.20;99.90;;;;;;5012804;28;20205;-86
2023/04/10 10:45:31;;;;;;;2.97;0.93;;;8.30;99.90;;;;;;4990223;28;20214;-87
2023/04/10 10:48:02;;;;;;;2.83;1.00;;;8.20;99.90;;;;;;4994618;28;20750;-86
2023/04/10 10:50:56;;;;;;;3.07;1.07;;;8.20;99.90;;;;;;4995670;28;20246;-86
2023/04/10 10:53:38;;;;;;;2.73;0.93;;;8.10;99.90;;;;;;4982139;28;20210;-87
2023/04/10 10:56:38;;;;;;;1.90;0.73;;;8.20;99.90;;;;;;4977437;28;20621;-87
2023/04/10 10:59:10;;;;;;;2.10;0.90;;;8.10;99.90;;;;;;4971555;28;20213;-87
2023/04/10 11:02:16;;;;;;;1.77;0.90;;;8.10;99.90;;;;;;4976957;28;20203;-86
2023/04/10 11:04:49;;;;;;;2.97;1.00;;;8.20;99.90;;;;;;4988071;28;20554;-87
2023/04/10 11:07:20;;;;;;;2.10;0.90;;;8.20;99.90;;;;;;4997206;28;20214;-88
2023/04/10 11:09:53;;;;;;;3.43;1.27;;;8.20;99.90;;;;;;4993987;28;20242;-87
2023/04/10 11:12:26;;;;;;;3.13;1.27;;;8.10;99.90;;;;;;4993021;28;20214;-87
2023/04/10 11:15:01;;;;;;;2.07;0.90;;;8.00;99.90;;;;;;4976456;28;20214;-87
2023/04/10 11:17:50;;;;;;;1.73;1.13;;;8.00;99.90;;;;;;4979091;28;20218;-87
2023/04/10 11:20:26;;;;;;;1.20;0.90;;;8.10;99.90;;;;;;4980688;28;20844;-87
2023/04/10 11:23:11;;;;;;;2.40;0.80;;;8.10;99.90;;;;;;4993115;28;20217;-87
2023/04/10 11:25:50;;;;;;;2.53;1.20;;;8.10;99.90;;;;;;4985720;28;20218;-87
2023/04/10 11:28:41;;;;;;;1.00;0.80;;;8.10;99.90;;;;;;4993361;28;20218;-87
2023/04/10 11:31:18;;;;;;;5.00;1.70;;;8.10;99.90;;;;;;4989699;28;20242;-88
2023/04/10 11:33:52;;;;;;;4.57;1.03;;;8.00;99.90;;;;;;4993924;28;20206;-88
2023/04/10 11:36:23;;;;;;;4.20;1.10;;;8.00;99.90;;;;;;4993910;28;20215;-87
2023/04/10 11:38:58;;;;;;;2.00;1.30;;;8.10;99.90;;;;;;4996607;28;20232;-87
2023/04/10 11:41:33;;;;;;;2.40;0.90;;;8.10;99.90;;;;;;5015467;28;20249;-87
2023/04/10 11:44:09;;;;;;;2.40;0.83;;;8.00;99.90;;;;;;5015220;28;20220;-87
2023/04/10 11:46:41;;;;;;;2.90;0.83;;;8.00;99.90;;;;;;5012877;28;20236;-87
2023/04/10 11:49:12;;;;;;;1.37;0.80;;;7.90;99.90;;;;;;5017939;28;20209;-87
2023/04/10 11:51:48;;;;;;;2.37;1.03;;;7.90;99.90;;;;;;5002837;28;20230;-87
2023/04/10 11:54:20;;;;;;;1.87;0.90;;;7.90;99.90;;;;;;4983463;28;20214;-88
2023/04/10 11:57:00;;;;;;;2.37;0.70;;;7.90;99.90;;;;;;4984618;28;20221;-87
2023/04/10 11:59:34;;;;;;;0.67;0.60;;;7.90;99.90;;;;;;5003710;28;20686;-86
2023/04/10 12:02:09;;;;;;;1.97;0.70;;;7.80;99.90;;;;;;4995844;28;20207;-88
2023/04/10 12:04:41;;;;;;;2.37;1.00;;;7.80;99.90;;;;;;4978113;28;20215;-87
2023/04/10 12:07:12;;;;;;;0.93;0.60;;;7.70;99.90;;;;;;4997727;28;20216;-87
2023/04/10 12:09:43;;;;;;;0.90;0.60;;;7.70;99.90;;;;;;5007638;28;20216;-87
2023/04/10 12:12:14;;;;;;;2.23;0.70;;;7.80;99.90;;;;;;5014028;28;20230;-87
2023/04/10 12:14:47;;;;;;;1.10;0.70;;;7.80;99.90;;;;;;4996421;28;20215;-88
2023/04/10 12:17:19;;;;;;;1.90;0.60;;;7.70;99.90;;;;;;4994283;28;20814;-87
2023/04/10 12:19:50;;;;;;;1.03;0.73;;;7.70;99.90;;;;;;4990803;28;20213;-87
2023/04/10 12:22:22;;;;;;;2.27;1.13;;;7.70;99.90;;;;;;4994605;28;20225;-87
2023/04/10 12:24:54;;;;;;;2.10;0.90;;;7.70;99.90;;;;;;5008087;28;20725;-87
2023/04/10 12:27:27;;;;;;;2.93;0.90;;;7.60;99.90;;;;;;5004189;28;20257;-90
2023/04/10 12:30:00;;;;;;;1.47;0.60;;;7.70;99.90;;;;;;4986974;28;20206;-88
2023/04/10 12:32:31;;;;;;;2.60;0.77;;;7.70;99.90;;;;;;4992717;28;20214;-88
2023/04/10 12:35:03;;;;;;;1.87;1.00;;;7.60;99.90;;;;;;4984693;28;20273;-87
2023/04/10 12:37:49;;;;;;;3.40;0.90;;;7.60;99.90;;;;;;4993956;28;20210;-87
2023/04/10 12:40:21;;;;;;;1.60;0.80;;;7.60;99.90;;;;;;4994187;28;20206;-86
2023/04/10 12:42:52;;;;;;;1.23;0.83;;;7.60;99.90;;;;;;4985965;28;20248;-87
2023/04/10 12:45:43;;;;;;;1.23;1.03;;;7.60;99.90;;;;;;4974645;28;20661;-86
2023/04/10 12:48:23;;;;;;;1.57;0.70;;;7.50;99.90;;;;;;4977553;28;20218;-87
2023/04/10 12:50:54;;;;;;;0.80;0.80;;;7.50;99.90;;;;;;4988790;28;20651;-86
2023/04/10 12:53:26;;;;;;;1.30;0.80;;;7.50;99.90;;;;;;4997323;28;20206;-87
2023/04/10 12:56:01;;;;;;;2.33;1.00;;;7.60;99.90;;;;;;4979089;28;20203;-87
2023/04/10 12:58:33;;;;;;;1.37;0.80;;;7.60;99.90;;;;;;5001932;28;20251;-86
2023/04/10 13:01:08;;;;;;;1.30;0.70;;;7.60;99.90;;;;;;4978319;28;20199;-87
2023/04/10 13:03:40;;;;;;;1.93;1.07;;;7.60;99.90;;;;;;4993928;28;20203;-86
2023/04/10 13:06:11;;;;;;;1.37;1.07;;;7.60;99.90;;;;;;4989729;28;20614;-87
2023/04/10 13:08:43;;;;;;;1.57;0.93;;;7.60;99.90;;;;;;4991637;28;20585;-86
2023/04/10 13:11:14;;;;;;;1.90;0.87;;;7.60;99.90;;;;;;5017090;28;20264;-86
2023/04/10 13:13:45;;;;;;;1.67;0.90;;;7.60;99.90;;;;;;4983740;28;20214;-86
2023/04/10 13:16:21;;;;;;;3.80;1.17;;;7.60;99.90;;;;;;4978177;28;20210;-87
2023/04/10 13:18:53;;;;;;;2.63;1.07;;;7.60;99.90;;;;;;4977604;28;20607;-86
2023/04/10 13:21:25;;;;;;;2.87;0.90;;;7.70;99.90;;;;;;4978812;28;20274;-87
2023/04/10 13:23:57;;;;;;;2.00;1.07;;;7.70;99.90;;;;;;4979914;28;20293;-87
2023/04/10 13:26:28;;;;;;;1.70;1.17;;;7.60;99.90;;;;;;4978348;28;20641;-87